Mount Pleasant, Iowa
Current Conditions -  °F | °C
As of 1:35 PM on Thursday 23 Oct 2014 (Local Time) from KMPZ Reporting Station
Scattered Clouds Scattered Clouds  
Wind Chill: 63°   Ceiling: Unl
Heat Index: 63°   Visibility: 10mi
Dew Point: 48°   Wind: 8mph
Humidity: 60%   Direction: 190°S
Pressure: 30.07"   Gusts: NA
Location:  40.97°N, 91.55°W
Report Text: KMPZ 231835Z AUTO 19007KT 10SM SCT110 17/09 A3007 RMK AO2 T01700091
Loading
Personal Weather Stations






























Interactive Weather Map
Tropical Storm Tracking
New forecast layout! Learn more

10-Day Weather Forecast

Advertisements
Track Severe Weather on mobile